createdAt,value
2019-06-08T00:00:39.666Z,0.00
2019-06-08T00:02:32.668Z,0.00
2019-06-08T00:03:32.616Z,0.00
2019-06-08T00:05:25.619Z,0.00
2019-06-08T00:06:25.572Z,0.00
2019-06-08T00:08:19.068Z,0.00
2019-06-08T00:09:20.399Z,0.00
2019-06-08T00:11:10.003Z,0.00
2019-06-08T00:12:10.175Z,0.00
2019-06-08T00:14:02.946Z,0.00
2019-06-08T00:15:02.906Z,0.00
2019-06-08T00:16:55.911Z,0.00
2019-06-08T00:17:59.255Z,0.00
2019-06-08T00:19:48.850Z,0.00
2019-06-08T00:20:48.815Z,0.00
2019-06-08T00:22:41.008Z,0.00
2019-06-08T00:23:41.180Z,0.00
2019-06-08T00:25:33.968Z,0.00
2019-06-08T00:26:34.156Z,0.00
2019-06-08T00:28:26.900Z,0.00
2019-06-08T00:29:27.094Z,0.00
2019-06-08T00:31:20.175Z,0.00
2019-06-08T00:32:20.327Z,0.00
2019-06-08T00:34:12.810Z,0.00
2019-06-08T00:35:13.021Z,0.00
2019-06-08T00:37:05.787Z,0.00
2019-06-08T00:38:05.740Z,0.00
2019-06-08T00:39:58.725Z,0.00
2019-06-08T00:40:58.950Z,0.00
2019-06-08T00:42:50.775Z,0.00
2019-06-08T00:43:50.952Z,0.00
2019-06-08T00:45:43.735Z,0.00
2019-06-08T00:46:43.907Z,0.00
2019-06-08T00:48:36.686Z,0.00
2019-06-08T00:49:36.635Z,0.00
2019-06-08T00:51:29.851Z,0.00
2019-06-08T00:52:29.593Z,0.00
2019-06-08T00:54:23.479Z,0.00
2019-06-08T00:55:23.770Z,0.00
2019-06-08T00:57:15.693Z,0.00
2019-06-08T00:58:15.609Z,0.00
2019-06-08T01:00:10.575Z,0.00
2019-06-08T01:01:08.874Z,0.00
2019-06-08T01:03:01.980Z,0.00
2019-06-08T01:04:01.947Z,0.00
2019-06-08T01:05:54.921Z,0.00
2019-06-08T01:06:54.883Z,0.00
2019-06-08T01:08:48.000Z,0.00
2019-06-08T01:09:47.940Z,0.00
2019-06-08T01:11:40.934Z,0.00
2019-06-08T01:12:40.897Z,0.00
2019-06-08T01:14:34.009Z,0.00
2019-06-08T01:15:34.540Z,0.00
2019-06-08T01:17:27.476Z,0.00
2019-06-08T01:18:27.437Z,0.00
2019-06-08T01:20:21.558Z,0.00
2019-06-08T01:21:21.302Z,0.00
2019-06-08T01:23:12.980Z,0.00
2019-06-08T01:24:12.927Z,0.00
2019-06-08T01:26:05.924Z,0.00
2019-06-08T01:27:06.115Z,0.00
2019-06-08T01:28:58.883Z,0.00
2019-06-08T01:29:59.066Z,0.00
2019-06-08T01:31:51.831Z,0.00
2019-06-08T01:32:52.331Z,0.00
2019-06-08T01:34:44.815Z,0.00
2019-06-08T01:35:44.978Z,0.00
2019-06-08T01:37:37.742Z,0.00
2019-06-08T01:38:37.939Z,0.00
2019-06-08T01:40:31.539Z,0.00
2019-06-08T01:41:31.720Z,0.00
2019-06-08T01:43:23.741Z,0.00
2019-06-08T01:44:23.620Z,0.00
2019-06-08T01:46:16.607Z,0.00
2019-06-08T01:47:16.803Z,0.00
2019-06-08T01:49:08.659Z,0.00
2019-06-08T01:50:08.840Z,0.00
2019-06-08T01:52:01.610Z,0.00
2019-06-08T01:53:01.792Z,0.00
2019-06-08T01:54:53.638Z,0.00
2019-06-08T01:55:53.598Z,0.00
2019-06-08T01:57:46.709Z,0.00
2019-06-08T01:58:46.663Z,0.00
2019-06-08T02:00:41.635Z,0.00
2019-06-08T02:01:39.615Z,0.00
2019-06-08T02:03:32.776Z,0.00
2019-06-08T02:04:33.209Z,0.00
2019-06-08T02:06:26.191Z,0.00
2019-06-08T02:07:26.359Z,0.00
2019-06-08T02:09:18.553Z,0.00
2019-06-08T02:10:18.720Z,0.00
2019-06-08T02:12:11.490Z,0.00
2019-06-08T02:13:11.438Z,0.00
2019-06-08T02:15:04.499Z,0.00
2019-06-08T02:16:04.396Z,0.00
2019-06-08T02:17:57.506Z,0.00
2019-06-08T02:18:57.451Z,0.00
2019-06-08T02:20:50.450Z,0.00
2019-06-08T02:21:50.641Z,0.00
2019-06-08T02:23:43.421Z,0.00
2019-06-08T02:24:43.594Z,0.00
2019-06-08T02:26:36.445Z,0.00
2019-06-08T02:27:36.321Z,0.00
2019-06-08T02:29:29.464Z,0.00
2019-06-08T03:06:50.793Z,0.00
2019-06-08T03:07:50.739Z,0.00
2019-06-08T03:09:43.733Z,0.00
2019-06-08T03:10:43.697Z,0.00
2019-06-08T03:12:37.520Z,0.00
2019-06-08T03:13:37.907Z,0.00
2019-06-08T03:15:28.721Z,0.00
2019-06-08T03:16:28.686Z,0.00
2019-06-08T03:18:21.696Z,4.00
2019-06-08T03:19:23.108Z,4.00
2019-06-08T03:21:14.633Z,4.00
2019-06-08T03:22:14.604Z,4.00
2019-06-08T03:24:07.614Z,4.00
2019-06-08T03:25:07.556Z,4.00
2019-06-08T03:27:00.564Z,4.00
2019-06-08T03:28:00.512Z,4.00
2019-06-08T03:29:53.522Z,4.00
2019-06-08T03:30:55.045Z,4.00
2019-06-08T03:32:55.115Z,0.00
2019-06-08T03:33:54.534Z,0.00
2019-06-08T03:35:50.993Z,0.00
2019-06-08T03:36:48.067Z,0.00
2019-06-08T03:38:33.770Z,4.00
2019-06-08T03:39:32.335Z,4.00
2019-06-08T03:41:25.345Z,4.00
2019-06-08T03:42:25.290Z,4.00
2019-06-08T03:44:18.285Z,4.00
2019-06-08T03:45:18.248Z,4.00
2019-06-08T03:47:11.247Z,4.00
2019-06-08T03:48:11.208Z,4.00
2019-06-08T03:50:04.295Z,0.00
2019-06-08T03:51:04.259Z,4.00
2019-06-08T03:52:57.272Z,4.00
2019-06-08T03:53:57.217Z,8.00
2019-06-08T03:55:49.284Z,8.00
2019-06-08T03:56:49.253Z,12.00
2019-06-08T03:58:42.920Z,12.00
2019-06-08T03:59:43.766Z,12.00
2019-06-08T04:01:35.320Z,20.00
2019-06-08T04:02:35.265Z,16.00
2019-06-08T04:04:28.564Z,20.00
2019-06-08T04:05:28.529Z,20.00
2019-06-08T04:07:21.543Z,16.00
2019-06-08T04:08:21.484Z,12.00
2019-06-08T04:10:14.473Z,8.00
2019-06-08T04:11:14.443Z,12.00
2019-06-08T04:13:11.110Z,12.00
2019-06-08T04:14:07.629Z,12.00
2019-06-08T04:16:00.406Z,12.00
2019-06-08T04:17:00.582Z,12.00
2019-06-08T04:18:52.439Z,8.00
2019-06-08T04:20:09.628Z,12.00
2019-06-08T04:21:46.284Z,12.00
2019-06-08T04:22:47.256Z,12.00
2019-06-08T04:24:40.041Z,8.00
2019-06-08T04:25:40.426Z,8.00
2019-06-08T04:27:31.630Z,12.00
2019-06-08T04:28:31.564Z,8.00
2019-06-08T04:30:24.552Z,8.00
2019-06-08T04:31:24.522Z,8.00
2019-06-08T04:33:17.541Z,12.00
2019-06-08T04:34:17.719Z,12.00
2019-06-08T04:36:10.484Z,12.00
2019-06-08T04:37:10.660Z,16.00
2019-06-08T04:39:03.432Z,16.00
2019-06-08T04:40:03.399Z,16.00
2019-06-08T04:41:56.380Z,16.00
2019-06-08T04:42:56.574Z,20.00
2019-06-08T04:44:49.464Z,24.00
2019-06-08T04:45:49.931Z,24.00
2019-06-08T04:47:43.616Z,20.00
2019-06-08T04:48:43.491Z,20.00
2019-06-08T04:50:35.572Z,20.00
2019-06-08T04:51:35.521Z,20.00
2019-06-08T04:53:28.530Z,20.00
2019-06-08T04:54:28.549Z,20.00
2019-06-08T04:56:21.477Z,28.00
2019-06-08T04:57:21.659Z,36.00
2019-06-08T04:59:14.438Z,36.00
2019-06-08T05:00:14.616Z,32.00
2019-06-08T05:02:07.374Z,40.00
2019-06-08T05:03:07.343Z,44.00
2019-06-08T05:05:00.354Z,52.00
2019-06-08T05:06:00.303Z,44.00
2019-06-08T05:07:53.296Z,48.00
2019-06-08T05:08:53.254Z,52.00
2019-06-08T05:10:47.358Z,80.00
2019-06-08T05:11:47.488Z,84.00
2019-06-08T05:13:39.272Z,72.00
2019-06-08T05:14:39.194Z,60.00
2019-06-08T05:16:32.174Z,76.00
2019-06-08T05:17:32.355Z,84.00
2019-06-08T05:19:25.132Z,88.00
2019-06-08T05:20:38.410Z,92.00
2019-06-08T05:22:18.066Z,92.00
2019-06-08T05:23:18.263Z,96.00
2019-06-08T05:25:11.349Z,92.00
2019-06-08T05:26:11.526Z,88.00
2019-06-08T05:28:04.288Z,104.00
2019-06-08T05:29:04.254Z,296.00
2019-06-08T05:30:57.260Z,360.00
2019-06-08T05:31:57.208Z,132.00
2019-06-08T05:33:50.204Z,80.00
2019-06-08T05:34:50.168Z,84.00
2019-06-08T05:36:43.321Z,100.00
2019-06-08T05:37:43.664Z,104.00
2019-06-08T05:39:35.188Z,96.00
2019-06-08T05:40:35.617Z,104.00
2019-06-08T05:42:27.239Z,104.00
2019-06-08T05:43:27.196Z,96.00
2019-06-08T05:45:20.199Z,112.00
2019-06-08T05:46:20.147Z,120.00
2019-06-08T05:48:13.157Z,144.00
2019-06-08T05:49:13.114Z,156.00
2019-06-08T05:51:05.171Z,156.00
2019-06-08T05:52:05.135Z,160.00
2019-06-08T05:53:58.149Z,176.00
2019-06-08T05:54:58.092Z,228.00
2019-06-08T05:56:51.101Z,312.00
2019-06-08T05:57:51.072Z,212.00
2019-06-08T05:59:44.160Z,220.00
2019-06-08T06:00:44.335Z,168.00
2019-06-08T06:02:37.095Z,148.00
2019-06-08T06:03:37.088Z,140.00
2019-06-08T06:05:30.171Z,196.00
2019-06-08T06:06:30.352Z,248.00
2019-06-08T06:08:23.127Z,228.00
2019-06-08T06:09:23.077Z,272.00
2019-06-08T06:11:16.187Z,324.00
2019-06-08T06:12:16.364Z,192.00
2019-06-08T06:14:09.137Z,192.00
2019-06-08T06:15:09.323Z,244.00
2019-06-08T06:17:02.191Z,544.00
2019-06-08T06:18:02.173Z,564.00
2019-06-08T06:19:55.262Z,564.00
2019-06-08T06:21:09.831Z,556.00
2019-06-08T06:22:47.751Z,556.00
2019-06-08T06:23:47.573Z,568.00
2019-06-08T06:25:41.419Z,328.00
2019-06-08T06:26:41.276Z,616.00
2019-06-08T06:28:33.413Z,336.00
2019-06-08T06:29:33.388Z,324.00
2019-06-08T06:31:25.442Z,344.00
2019-06-08T06:32:25.393Z,276.00
2019-06-08T06:34:18.404Z,388.00
2019-06-08T06:35:18.348Z,260.00
2019-06-08T06:37:10.417Z,328.00
2019-06-08T06:38:10.613Z,224.00
2019-06-08T06:40:02.476Z,192.00
2019-06-08T06:41:02.650Z,188.00
2019-06-08T06:42:54.509Z,212.00
2019-06-08T06:43:54.453Z,192.00
2019-06-08T06:45:48.027Z,144.00
2019-06-08T06:46:48.009Z,132.00
2019-06-08T06:48:40.500Z,148.00
2019-06-08T06:49:40.466Z,148.00
2019-06-08T06:51:34.040Z,136.00
2019-06-08T06:52:33.423Z,152.00
2019-06-08T06:54:26.538Z,156.00
2019-06-08T06:55:26.532Z,152.00
2019-06-08T06:57:18.570Z,148.00
2019-06-08T06:58:18.752Z,172.00
2019-06-08T07:00:11.524Z,208.00
2019-06-08T07:01:11.700Z,176.00
2019-06-08T07:03:03.772Z,124.00
2019-06-08T07:04:03.515Z,112.00
2019-06-08T07:05:55.587Z,96.00
2019-06-08T07:06:55.540Z,88.00
2019-06-08T07:08:48.534Z,84.00
2019-06-08T07:09:48.496Z,84.00
2019-06-08T07:11:40.584Z,92.00
2019-06-08T07:12:40.762Z,104.00
2019-06-08T07:14:32.620Z,96.00
2019-06-08T07:15:41.103Z,100.00
2019-06-08T07:17:25.554Z,124.00
2019-06-08T07:18:25.520Z,124.00
2019-06-08T07:20:18.529Z,128.00
2019-06-08T07:21:18.476Z,120.00
2019-06-08T07:23:11.485Z,112.00
2019-06-08T07:24:11.437Z,112.00
2019-06-08T07:26:04.426Z,156.00
2019-06-08T07:27:07.358Z,196.00
2019-06-08T07:28:58.845Z,204.00
2019-06-08T07:29:58.945Z,208.00
2019-06-08T07:31:51.675Z,160.00
2019-06-08T07:32:50.929Z,148.00
2019-06-08T07:34:43.616Z,144.00
2019-06-08T07:35:43.564Z,152.00
2019-06-08T07:37:36.583Z,168.00
2019-06-08T07:38:36.749Z,152.00
2019-06-08T07:40:29.630Z,120.00
2019-06-08T07:41:29.810Z,120.00
2019-06-08T07:43:22.669Z,124.00
2019-06-08T07:44:22.636Z,136.00
2019-06-08T07:46:14.825Z,144.00
2019-06-08T07:47:14.778Z,124.00
2019-06-08T07:49:07.784Z,132.00
2019-06-08T07:50:07.731Z,128.00
2019-06-08T07:52:09.726Z,152.00
2019-06-08T07:52:59.864Z,148.00
2019-06-08T07:54:53.163Z,168.00
2019-06-08T07:55:53.510Z,188.00
2019-06-08T07:57:45.813Z,228.00
2019-06-08T07:58:45.803Z,276.00
2019-06-08T08:00:38.890Z,312.00
2019-06-08T08:01:39.068Z,336.00
2019-06-08T08:03:31.826Z,260.00
2019-06-08T08:04:31.819Z,288.00
2019-06-08T08:06:23.983Z,304.00
2019-06-08T08:07:23.929Z,320.00
2019-06-08T08:09:17.040Z,284.00
2019-06-08T08:10:17.052Z,300.00
2019-06-08T08:12:12.327Z,284.00
2019-06-08T08:13:10.045Z,292.00
2019-06-08T08:15:03.080Z,292.00
2019-06-08T08:16:03.021Z,332.00
2019-06-08T08:17:57.557Z,252.00
2019-06-08T08:18:56.062Z,228.00
2019-06-08T08:20:49.488Z,224.00
2019-06-08T08:21:51.893Z,228.00
2019-06-08T08:23:42.135Z,232.00
2019-06-08T08:24:42.081Z,236.00
2019-06-08T08:26:35.099Z,232.00
2019-06-08T08:27:37.372Z,224.00
2019-06-08T08:29:31.171Z,220.00
2019-06-08T08:30:28.519Z,224.00
2019-06-08T08:32:21.097Z,228.00
2019-06-08T08:33:21.073Z,220.00
2019-06-08T08:35:14.165Z,208.00
2019-06-08T08:36:14.335Z,220.00
2019-06-08T08:38:07.707Z,268.00
2019-06-08T08:39:08.358Z,280.00
2019-06-08T08:41:06.874Z,264.00
2019-06-08T08:42:04.837Z,212.00
2019-06-08T08:43:54.286Z,236.00
2019-06-08T08:44:54.146Z,248.00
2019-06-08T08:46:48.638Z,268.00
2019-06-08T08:47:48.356Z,292.00
2019-06-08T08:49:39.143Z,236.00
2019-06-08T08:50:39.088Z,220.00
2019-06-08T08:52:37.069Z,304.00
2019-06-08T08:53:32.148Z,436.00
2019-06-08T08:55:24.235Z,312.00
2019-06-08T08:56:24.184Z,576.00
2019-06-08T08:58:18.622Z,456.00
2019-06-08T08:59:17.843Z,400.00
2019-06-08T09:01:10.241Z,276.00
2019-06-08T09:02:11.467Z,628.00
2019-06-08T09:04:04.931Z,952.00
2019-06-08T09:05:03.729Z,416.00
2019-06-08T09:06:57.891Z,348.00
2019-06-08T09:07:56.384Z,536.00
2019-06-08T09:09:48.394Z,968.00
2019-06-08T09:10:48.253Z,860.00
2019-06-08T09:12:41.363Z,296.00
2019-06-08T09:13:41.303Z,256.00
2019-06-08T09:15:34.414Z,216.00
2019-06-08T09:16:34.362Z,184.00
2019-06-08T09:18:28.680Z,192.00
2019-06-08T09:19:28.163Z,216.00
2019-06-08T09:21:20.437Z,536.00
2019-06-08T09:22:20.605Z,516.00
2019-06-08T09:24:12.588Z,336.00
2019-06-08T09:25:13.598Z,336.00
2019-06-08T09:27:07.810Z,592.00
2019-06-08T09:28:05.424Z,608.00
2019-06-08T09:30:00.876Z,976.00
2019-06-08T09:31:00.643Z,812.00
2019-06-08T09:32:52.359Z,796.00
2019-06-08T09:33:57.111Z,972.00
2019-06-08T09:35:44.796Z,344.00
2019-06-08T09:36:47.630Z,972.00
2019-06-08T09:38:38.662Z,988.00
2019-06-08T09:39:38.577Z,992.00
2019-06-08T09:41:31.414Z,572.00
2019-06-08T09:42:30.967Z,312.00
2019-06-08T09:44:23.975Z,288.00
2019-06-08T09:45:23.921Z,1036.00
2019-06-08T09:47:18.176Z,332.00
2019-06-08T09:48:18.195Z,292.00
2019-06-08T09:50:09.869Z,648.00
2019-06-08T09:51:09.863Z,368.00
2019-06-08T09:53:14.750Z,384.00
2019-06-08T09:54:04.752Z,484.00
2019-06-08T09:55:56.649Z,324.00
2019-06-08T09:56:55.789Z,1024.00
2019-06-08T09:58:51.167Z,288.00
2019-06-08T09:59:48.322Z,260.00
2019-06-08T10:01:40.793Z,228.00
2019-06-08T10:02:40.736Z,252.00
2019-06-08T10:04:32.830Z,252.00
2019-06-08T10:05:32.772Z,276.00
2019-06-08T10:07:25.163Z,252.00
2019-06-08T10:08:25.113Z,268.00
2019-06-08T10:10:18.216Z,292.00
2019-06-08T10:11:17.250Z,316.00
2019-06-08T10:13:10.031Z,320.00
2019-06-08T10:14:12.542Z,700.00
2019-06-08T10:16:05.161Z,612.00
2019-06-08T10:17:03.926Z,296.00
2019-06-08T10:18:56.816Z,304.00
2019-06-08T10:19:57.871Z,420.00
2019-06-08T10:21:48.169Z,284.00
2019-06-08T10:22:50.049Z,236.00
2019-06-08T10:24:41.517Z,232.00
2019-06-08T10:25:39.367Z,268.00
2019-06-08T10:27:31.435Z,360.00
2019-06-08T10:28:31.401Z,376.00
2019-06-08T10:30:24.409Z,296.00
2019-06-08T10:31:36.493Z,276.00
2019-06-08T10:33:18.452Z,260.00
2019-06-08T10:34:16.391Z,248.00
2019-06-08T10:36:12.358Z,240.00
2019-06-08T10:37:12.946Z,236.00
2019-06-08T10:39:03.825Z,252.00
2019-06-08T10:40:03.761Z,252.00
2019-06-08T10:41:53.461Z,232.00
2019-06-08T10:42:53.425Z,220.00
2019-06-08T10:44:45.610Z,228.00
2019-06-08T10:45:45.559Z,240.00
2019-06-08T10:47:38.543Z,304.00
2019-06-08T10:48:38.509Z,444.00
2019-06-08T10:50:31.214Z,232.00
2019-06-08T10:51:31.163Z,248.00
2019-06-08T10:53:23.239Z,280.00
2019-06-08T10:54:23.423Z,372.00
2019-06-08T10:56:15.330Z,216.00
2019-06-08T10:57:15.468Z,188.00
2019-06-08T10:59:11.598Z,256.00
2019-06-08T11:00:17.961Z,720.00
2019-06-08T11:02:05.119Z,288.00
2019-06-08T11:03:03.317Z,276.00
2019-06-08T11:04:53.229Z,440.00
2019-06-08T11:05:53.174Z,464.00
2019-06-08T11:07:47.885Z,436.00
2019-06-08T11:08:45.314Z,516.00
2019-06-08T11:10:37.446Z,840.00
2019-06-08T11:11:38.313Z,860.00
2019-06-08T11:13:30.336Z,412.00
2019-06-08T11:14:30.549Z,464.00
2019-06-08T11:16:22.385Z,416.00
2019-06-08T11:17:22.569Z,580.00
2019-06-08T11:19:14.422Z,612.00
2019-06-08T11:20:14.602Z,460.00
2019-06-08T11:22:12.346Z,276.00
2019-06-08T11:23:09.810Z,296.00
2019-06-08T11:25:00.804Z,272.00
2019-06-08T11:26:04.623Z,240.00
2019-06-08T11:27:51.452Z,344.00
2019-06-08T11:28:51.442Z,868.00
2019-06-08T11:30:43.570Z,472.00
2019-06-08T11:31:43.535Z,552.00
2019-06-08T11:33:35.632Z,824.00
2019-06-08T11:34:37.710Z,628.00
2019-06-08T11:36:28.674Z,376.00
2019-06-08T11:37:28.627Z,412.00
2019-06-08T11:39:20.611Z,344.00
2019-06-08T11:40:21.010Z,312.00
2019-06-08T11:42:13.184Z,300.00
2019-06-08T11:43:12.590Z,264.00
2019-06-08T11:45:04.687Z,232.00
2019-06-08T11:46:04.806Z,264.00
2019-06-08T11:47:58.405Z,332.00
2019-06-08T11:49:01.101Z,340.00
2019-06-08T11:50:50.697Z,360.00
2019-06-08T11:51:50.871Z,352.00
2019-06-08T11:53:43.679Z,360.00
2019-06-08T11:54:43.631Z,440.00
2019-06-08T11:56:37.560Z,412.00
2019-06-08T11:57:37.406Z,348.00
2019-06-08T11:59:28.942Z,500.00
2019-06-08T12:00:31.011Z,560.00
2019-06-08T12:02:21.916Z,328.00
2019-06-08T12:03:21.852Z,288.00
2019-06-08T12:05:14.946Z,436.00
2019-06-08T12:06:14.908Z,316.00
2019-06-08T12:08:08.432Z,244.00
2019-06-08T12:09:10.414Z,228.00
2019-06-08T12:11:01.992Z,232.00
2019-06-08T12:12:00.125Z,220.00
2019-06-08T12:13:52.000Z,168.00
2019-06-08T12:14:52.161Z,152.00
2019-06-08T12:16:44.923Z,128.00
2019-06-08T12:17:44.888Z,120.00
2019-06-08T12:19:37.911Z,108.00
2019-06-08T12:20:37.847Z,104.00
2019-06-08T12:22:30.056Z,112.00
2019-06-08T12:23:29.981Z,120.00
2019-06-08T12:25:22.981Z,184.00
2019-06-08T12:26:22.937Z,220.00
2019-06-08T12:28:17.834Z,196.00
2019-06-08T12:29:18.740Z,188.00
2019-06-08T12:31:12.069Z,228.00
2019-06-08T12:32:10.667Z,248.00
2019-06-08T12:34:00.430Z,276.00
2019-06-08T12:35:00.370Z,312.00
2019-06-08T12:36:53.359Z,820.00
2019-06-08T12:37:53.325Z,352.00
2019-06-08T12:39:45.411Z,836.00
2019-06-08T12:40:45.376Z,292.00
2019-06-08T12:42:38.374Z,200.00
2019-06-08T12:43:38.596Z,152.00
2019-06-08T12:45:30.509Z,104.00
2019-06-08T12:46:30.453Z,96.00
2019-06-08T12:48:25.443Z,140.00
2019-06-08T12:49:23.407Z,156.00
2019-06-08T12:51:17.253Z,160.00
2019-06-08T12:52:16.725Z,168.00
2019-06-08T12:54:08.440Z,160.00
2019-06-08T12:55:12.498Z,168.00
2019-06-08T12:57:00.883Z,220.00
2019-06-08T12:58:00.536Z,404.00
2019-06-08T12:59:52.603Z,504.00
2019-06-08T13:00:52.570Z,780.00
2019-06-08T13:02:47.781Z,692.00
2019-06-08T13:03:48.242Z,676.00
2019-06-08T13:05:38.534Z,448.00
2019-06-08T13:06:40.773Z,632.00
2019-06-08T13:08:31.491Z,568.00
2019-06-08T13:09:31.669Z,652.00
2019-06-08T13:11:24.433Z,296.00
2019-06-08T13:12:24.625Z,680.00
2019-06-08T13:14:19.429Z,320.00
2019-06-08T13:15:21.475Z,724.00
2019-06-08T13:17:11.875Z,340.00
2019-06-08T13:18:11.976Z,748.00
2019-06-08T13:20:02.606Z,624.00
2019-06-08T13:21:15.661Z,604.00
2019-06-08T13:22:54.631Z,592.00
2019-06-08T13:23:54.830Z,592.00
2019-06-08T13:25:48.252Z,532.00
2019-06-08T13:26:50.446Z,596.00
2019-06-08T13:28:40.645Z,580.00
2019-06-08T13:29:40.595Z,576.00
2019-06-08T13:31:33.588Z,588.00
2019-06-08T13:32:33.554Z,340.00
2019-06-08T13:34:28.432Z,624.00
2019-06-08T13:35:27.411Z,208.00
2019-06-08T13:37:21.773Z,196.00
2019-06-08T13:38:21.965Z,200.00
2019-06-08T13:40:13.203Z,196.00
2019-06-08T13:41:12.985Z,180.00
2019-06-08T13:43:07.971Z,188.00
2019-06-08T13:44:08.133Z,244.00
2019-06-08T13:45:58.800Z,212.00
2019-06-08T13:46:58.747Z,200.00
2019-06-08T13:48:51.740Z,204.00
2019-06-08T13:49:51.697Z,236.00
2019-06-08T13:51:44.811Z,280.00
2019-06-08T13:52:44.756Z,288.00
2019-06-08T13:54:38.254Z,336.00
2019-06-08T13:55:49.570Z,700.00
2019-06-08T13:57:30.905Z,596.00
2019-06-08T13:58:33.297Z,572.00
2019-06-08T14:00:24.903Z,352.00
2019-06-08T14:01:24.062Z,224.00
2019-06-08T14:03:18.591Z,220.00
2019-06-08T14:04:19.165Z,208.00
2019-06-08T14:06:08.863Z,192.00
2019-06-08T14:07:09.049Z,188.00
2019-06-08T14:09:01.813Z,272.00
2019-06-08T14:10:01.789Z,404.00
2019-06-08T14:11:54.775Z,228.00
2019-06-08T14:12:54.730Z,260.00
2019-06-08T14:14:47.918Z,576.00
2019-06-08T14:15:48.783Z,628.00
2019-06-08T14:17:39.754Z,576.00
2019-06-08T14:18:39.725Z,444.00
2019-06-08T14:20:34.565Z,296.00
2019-06-08T14:21:38.537Z,544.00
2019-06-08T14:23:25.670Z,536.00
2019-06-08T14:24:30.009Z,172.00
2019-06-08T14:26:20.171Z,148.00
2019-06-08T14:27:17.705Z,136.00
2019-06-08T14:29:10.906Z,120.00
2019-06-08T14:30:11.058Z,128.00
2019-06-08T14:32:02.895Z,160.00
2019-06-08T14:33:03.091Z,176.00
2019-06-08T14:34:58.204Z,220.00
2019-06-08T14:35:56.818Z,184.00
2019-06-08T14:37:48.294Z,152.00
2019-06-08T14:38:49.456Z,128.00
2019-06-08T14:40:40.248Z,96.00
2019-06-08T14:41:40.193Z,96.00
2019-06-08T14:43:32.280Z,104.00
2019-06-08T14:44:33.978Z,112.00
2019-06-08T14:46:26.104Z,140.00
2019-06-08T14:47:27.396Z,156.00
2019-06-08T14:49:22.901Z,168.00
2019-06-08T14:50:19.740Z,176.00
2019-06-08T14:52:11.148Z,448.00
2019-06-08T14:53:11.328Z,532.00
2019-06-08T14:55:03.185Z,420.00
2019-06-08T14:56:08.310Z,452.00
2019-06-08T14:57:58.020Z,416.00
2019-06-08T14:58:57.611Z,412.00
2019-06-08T15:00:49.121Z,404.00
2019-06-08T15:01:49.279Z,404.00
2019-06-08T15:03:42.035Z,412.00
2019-06-08T15:04:42.228Z,412.00
2019-06-08T15:06:34.432Z,404.00
2019-06-08T15:07:34.572Z,404.00
2019-06-08T15:09:27.654Z,400.00
2019-06-08T15:10:29.402Z,416.00
2019-06-08T15:12:21.438Z,428.00
2019-06-08T15:13:21.772Z,452.00
2019-06-08T15:15:13.360Z,384.00
2019-06-08T15:16:13.543Z,200.00
2019-06-08T15:18:08.413Z,168.00
2019-06-08T15:19:08.129Z,140.00
2019-06-08T15:20:59.257Z,112.00
2019-06-08T15:21:59.452Z,96.00
2019-06-08T15:23:52.230Z,60.00
2019-06-08T15:24:52.408Z,52.00
2019-06-08T15:26:46.058Z,56.00
2019-06-08T15:27:47.717Z,72.00
2019-06-08T15:29:38.244Z,80.00
2019-06-08T15:30:38.594Z,84.00
2019-06-08T15:32:33.716Z,88.00
2019-06-08T15:33:33.695Z,96.00
2019-06-08T15:35:25.129Z,132.00
2019-06-08T15:36:25.209Z,160.00
2019-06-08T15:38:17.488Z,208.00
2019-06-08T15:39:17.907Z,256.00
2019-06-08T15:41:09.250Z,264.00
2019-06-08T15:42:09.196Z,424.00
2019-06-08T15:44:02.186Z,364.00
2019-06-08T15:45:02.158Z,340.00
2019-06-08T15:46:55.161Z,316.00
2019-06-08T15:47:55.108Z,308.00
2019-06-08T15:49:50.357Z,304.00
2019-06-08T15:50:49.423Z,300.00
2019-06-08T15:52:41.054Z,300.00
2019-06-08T15:53:41.023Z,296.00
2019-06-08T15:55:34.543Z,288.00
2019-06-08T15:56:45.778Z,288.00
2019-06-08T15:58:29.499Z,284.00
2019-06-08T15:59:30.870Z,284.00
2019-06-08T16:01:20.168Z,280.00
2019-06-08T16:02:19.991Z,280.00
2019-06-08T16:04:12.999Z,272.00
2019-06-08T16:05:13.176Z,272.00
2019-06-08T16:07:06.002Z,152.00
2019-06-08T16:08:05.904Z,272.00
2019-06-08T16:09:58.903Z,264.00
2019-06-08T16:10:58.866Z,268.00
2019-06-08T16:12:51.851Z,132.00
2019-06-08T16:13:52.044Z,108.00
2019-06-08T16:15:44.824Z,176.00
2019-06-08T16:16:45.005Z,132.00
2019-06-08T16:18:37.792Z,124.00
2019-06-08T16:19:37.728Z,124.00
2019-06-08T16:21:31.753Z,100.00
2019-06-08T16:22:31.728Z,96.00
2019-06-08T16:24:23.798Z,96.00
2019-06-08T16:25:23.972Z,96.00
2019-06-08T16:27:16.730Z,80.00
2019-06-08T16:28:16.700Z,72.00
2019-06-08T16:30:10.041Z,64.00
2019-06-08T16:31:09.660Z,60.00
2019-06-08T16:33:02.645Z,72.00
2019-06-08T16:34:02.608Z,80.00
2019-06-08T16:35:55.722Z,92.00
2019-06-08T16:36:55.694Z,96.00
2019-06-08T16:38:47.738Z,188.00
2019-06-08T16:39:47.706Z,256.00
2019-06-08T16:41:40.906Z,140.00
2019-06-08T16:42:40.992Z,108.00
2019-06-08T16:44:34.172Z,216.00
2019-06-08T16:45:33.134Z,220.00
2019-06-08T16:47:26.909Z,88.00
2019-06-08T16:48:25.752Z,204.00
2019-06-08T16:50:24.586Z,200.00
2019-06-08T16:51:18.708Z,104.00
2019-06-08T16:53:10.795Z,72.00
2019-06-08T16:54:10.761Z,76.00
2019-06-08T16:56:03.734Z,84.00
2019-06-08T16:57:10.098Z,76.00
2019-06-08T16:58:56.705Z,68.00
2019-06-08T16:59:56.706Z,64.00
2019-06-08T17:01:49.664Z,56.00
2019-06-08T17:02:49.615Z,52.00
2019-06-08T17:04:42.702Z,44.00
2019-06-08T17:05:42.671Z,44.00
2019-06-08T17:07:35.677Z,40.00
2019-06-08T17:08:38.737Z,48.00
2019-06-08T17:10:28.721Z,52.00
2019-06-08T17:11:29.570Z,88.00
2019-06-08T17:13:21.695Z,116.00
2019-06-08T17:14:24.814Z,64.00
2019-06-08T17:16:14.648Z,84.00
2019-06-08T17:17:14.594Z,72.00
2019-06-08T17:19:07.602Z,48.00
2019-06-08T17:20:07.552Z,48.00
2019-06-08T17:22:00.560Z,52.00
2019-06-08T17:23:00.507Z,52.00
2019-06-08T17:24:53.510Z,52.00
2019-06-08T17:25:53.464Z,48.00
2019-06-08T17:27:45.547Z,40.00
2019-06-08T17:28:45.725Z,32.00
2019-06-08T17:30:39.406Z,32.00
2019-06-08T17:31:39.303Z,28.00
2019-06-08T17:33:31.461Z,36.00
2019-06-08T17:34:31.778Z,40.00
2019-06-08T17:36:24.399Z,40.00
2019-06-08T17:37:24.369Z,40.00
2019-06-08T17:39:17.376Z,40.00
2019-06-08T17:40:17.549Z,44.00
2019-06-08T17:42:09.435Z,52.00
2019-06-08T17:43:09.355Z,64.00
2019-06-08T17:45:01.424Z,72.00
2019-06-08T17:46:01.391Z,68.00
2019-06-08T17:47:54.439Z,64.00
2019-06-08T17:48:54.384Z,56.00
2019-06-08T17:50:47.460Z,44.00
2019-06-08T17:51:47.404Z,36.00
2019-06-08T17:53:39.490Z,32.00
2019-06-08T17:54:39.670Z,36.00
2019-06-08T17:56:32.981Z,44.00
2019-06-08T17:57:42.373Z,52.00
2019-06-08T17:59:25.504Z,96.00
2019-06-08T18:00:25.512Z,108.00
2019-06-08T18:02:27.269Z,104.00
2019-06-08T18:03:18.410Z,108.00
2019-06-08T18:05:11.506Z,112.00
2019-06-08T18:06:11.467Z,108.00
2019-06-08T18:08:04.507Z,96.00
2019-06-08T18:09:04.456Z,88.00
2019-06-08T18:10:57.592Z,76.00
2019-06-08T18:11:56.456Z,64.00
2019-06-08T18:13:49.467Z,52.00
2019-06-08T18:14:49.413Z,48.00
2019-06-08T18:16:43.758Z,44.00
2019-06-08T18:17:43.805Z,44.00
2019-06-08T18:19:38.010Z,44.00
2019-06-08T18:20:38.602Z,40.00
2019-06-08T18:22:28.418Z,40.00
2019-06-08T18:23:28.384Z,40.00
2019-06-08T18:25:20.462Z,36.00
2019-06-08T18:26:20.419Z,40.00
2019-06-08T18:28:13.709Z,36.00
2019-06-08T18:29:13.374Z,36.00
2019-06-08T18:31:07.511Z,32.00
2019-06-08T18:32:07.339Z,36.00
2019-06-08T18:34:01.999Z,32.00
2019-06-08T18:34:59.287Z,32.00
2019-06-08T18:36:52.513Z,36.00
2019-06-08T18:37:52.447Z,32.00
2019-06-08T18:39:45.959Z,32.00
2019-06-08T18:40:47.822Z,28.00
2019-06-08T18:42:39.361Z,28.00
2019-06-08T18:43:40.027Z,28.00
2019-06-08T18:45:30.429Z,28.00
2019-06-08T18:46:30.622Z,24.00
2019-06-08T18:48:23.415Z,28.00
2019-06-08T18:49:25.622Z,28.00
2019-06-08T18:51:17.509Z,24.00
2019-06-08T18:52:17.458Z,28.00
2019-06-08T18:54:14.717Z,24.00